sensor_id;sensor_type;location;lat;lon;timestamp;P1;durP1;ratioP1;P2;durP2;ratioP2
16115;SDS011;8162;47.104;15.432;2024-03-22T00:00:52;2.63;;;2.20;;
16115;SDS011;8162;47.104;15.432;2024-03-22T00:03:53;2.40;;;2.20;;
16115;SDS011;8162;47.104;15.432;2024-03-22T00:06:53;3.23;;;2.10;;
16115;SDS011;8162;47.104;15.432;2024-03-22T00:09:54;2.37;;;2.17;;
16115;SDS011;8162;47.104;15.432;2024-03-22T00:12:55;2.10;;;1.90;;
16115;SDS011;8162;47.104;15.432;2024-03-22T00:15:56;3.63;;;2.07;;
16115;SDS011;8162;47.104;15.432;2024-03-22T00:18:56;4.30;;;2.10;;
16115;SDS011;8162;47.104;15.432;2024-03-22T00:21:57;2.20;;;1.90;;
16115;SDS011;8162;47.104;15.432;2024-03-22T00:32:52;2.63;;;2.17;;
16115;SDS011;8162;47.104;15.432;2024-03-22T00:35:52;2.77;;;1.90;;
16115;SDS011;8162;47.104;15.432;2024-03-22T00:38:53;2.30;;;2.10;;
16115;SDS011;8162;47.104;15.432;2024-03-22T00:41:54;2.20;;;2.00;;
16115;SDS011;8162;47.104;15.432;2024-03-22T00:44:54;2.83;;;1.90;;
16115;SDS011;8162;47.104;15.432;2024-03-22T00:47:57;2.43;;;1.90;;
16115;SDS011;8162;47.104;15.432;2024-03-22T00:50:57;1.90;;;1.80;;
16115;SDS011;8162;47.104;15.432;2024-03-22T00:53:58;2.73;;;2.17;;
16115;SDS011;8162;47.104;15.432;2024-03-22T00:56:59;2.27;;;1.93;;
16115;SDS011;8162;47.104;15.432;2024-03-22T00:59:59;2.50;;;1.90;;
16115;SDS011;8162;47.104;15.432;2024-03-22T01:03:00;2.47;;;1.60;;
16115;SDS011;8162;47.104;15.432;2024-03-22T01:06:01;4.27;;;2.10;;
16115;SDS011;8162;47.104;15.432;2024-03-22T01:09:01;2.93;;;2.30;;
16115;SDS011;8162;47.104;15.432;2024-03-22T01:12:03;2.63;;;2.10;;
16115;SDS011;8162;47.104;15.432;2024-03-22T01:15:05;3.97;;;2.27;;
16115;SDS011;8162;47.104;15.432;2024-03-22T01:18:07;3.37;;;2.23;;
16115;SDS011;8162;47.104;15.432;2024-03-22T01:21:08;2.40;;;2.10;;
16115;SDS011;8162;47.104;15.432;2024-03-22T01:24:08;3.17;;;1.90;;
16115;SDS011;8162;47.104;15.432;2024-03-22T01:27:09;2.90;;;2.20;;
16115;SDS011;8162;47.104;15.432;2024-03-22T01:30:10;3.07;;;2.27;;
16115;SDS011;8162;47.104;15.432;2024-03-22T01:33:11;2.37;;;2.13;;
16115;SDS011;8162;47.104;15.432;2024-03-22T01:36:12;3.67;;;2.30;;
16115;SDS011;8162;47.104;15.432;2024-03-22T01:39:12;2.53;;;2.10;;
16115;SDS011;8162;47.104;15.432;2024-03-22T01:42:14;3.77;;;2.60;;
16115;SDS011;8162;47.104;15.432;2024-03-22T01:45:15;2.37;;;2.17;;
16115;SDS011;8162;47.104;15.432;2024-03-22T01:48:15;2.73;;;2.07;;
16115;SDS011;8162;47.104;15.432;2024-03-22T01:51:16;2.50;;;2.17;;
16115;SDS011;8162;47.104;15.432;2024-03-22T01:54:19;2.30;;;2.10;;
16115;SDS011;8162;47.104;15.432;2024-03-22T01:57:20;2.30;;;2.10;;
16115;SDS011;8162;47.104;15.432;2024-03-22T02:00:21;4.40;;;2.93;;
16115;SDS011;8162;47.104;15.432;2024-03-22T02:03:22;3.97;;;2.77;;
16115;SDS011;8162;47.104;15.432;2024-03-22T02:06:22;5.30;;;2.87;;
16115;SDS011;8162;47.104;15.432;2024-03-22T02:09:23;4.20;;;2.50;;
16115;SDS011;8162;47.104;15.432;2024-03-22T02:12:25;3.60;;;2.83;;
16115;SDS011;8162;47.104;15.432;2024-03-22T02:15:25;3.20;;;2.50;;
16115;SDS011;8162;47.104;15.432;2024-03-22T02:18:26;3.13;;;2.50;;
16115;SDS011;8162;47.104;15.432;2024-03-22T02:21:27;2.93;;;2.60;;
16115;SDS011;8162;47.104;15.432;2024-03-22T02:24:27;3.17;;;2.50;;
16115;SDS011;8162;47.104;15.432;2024-03-22T02:27:28;3.27;;;2.70;;
16115;SDS011;8162;47.104;15.432;2024-03-22T02:30:29;3.90;;;2.47;;
16115;SDS011;8162;47.104;15.432;2024-03-22T02:33:29;3.17;;;2.20;;
16115;SDS011;8162;47.104;15.432;2024-03-22T02:36:30;2.63;;;2.30;;
16115;SDS011;8162;47.104;15.432;2024-03-22T02:39:31;3.90;;;2.50;;
16115;SDS011;8162;47.104;15.432;2024-03-22T02:42:31;2.50;;;2.30;;
16115;SDS011;8162;47.104;15.432;2024-03-22T02:45:32;2.67;;;2.40;;
16115;SDS011;8162;47.104;15.432;2024-03-22T02:48:33;3.13;;;2.40;;
16115;SDS011;8162;47.104;15.432;2024-03-22T02:51:33;4.37;;;2.80;;
16115;SDS011;8162;47.104;15.432;2024-03-22T02:54:34;2.40;;;2.20;;
16115;SDS011;8162;47.104;15.432;2024-03-22T02:57:35;2.53;;;2.20;;
16115;SDS011;8162;47.104;15.432;2024-03-22T03:00:36;3.80;;;2.60;;
16115;SDS011;8162;47.104;15.432;2024-03-22T03:03:38;4.17;;;2.50;;
16115;SDS011;8162;47.104;15.432;2024-03-22T03:06:38;4.23;;;2.27;;
16115;SDS011;8162;47.104;15.432;2024-03-22T03:09:39;3.07;;;2.20;;
16115;SDS011;8162;47.104;15.432;2024-03-22T03:12:40;2.67;;;2.20;;
16115;SDS011;8162;47.104;15.432;2024-03-22T03:15:40;2.87;;;2.47;;
16115;SDS011;8162;47.104;15.432;2024-03-22T03:18:41;2.77;;;2.30;;
16115;SDS011;8162;47.104;15.432;2024-03-22T03:21:42;3.13;;;2.27;;
16115;SDS011;8162;47.104;15.432;2024-03-22T03:24:43;2.83;;;2.23;;
16115;SDS011;8162;47.104;15.432;2024-03-22T03:27:44;2.07;;;1.87;;
16115;SDS011;8162;47.104;15.432;2024-03-22T03:30:45;5.77;;;2.40;;
16115;SDS011;8162;47.104;15.432;2024-03-22T03:33:45;4.17;;;2.90;;
16115;SDS011;8162;47.104;15.432;2024-03-22T03:36:46;2.57;;;2.37;;
16115;SDS011;8162;47.104;15.432;2024-03-22T03:39:47;2.63;;;2.20;;
16115;SDS011;8162;47.104;15.432;2024-03-22T03:42:47;2.10;;;1.90;;
16115;SDS011;8162;47.104;15.432;2024-03-22T03:45:48;3.00;;;2.70;;
16115;SDS011;8162;47.104;15.432;2024-03-22T03:48:49;5.93;;;2.90;;
16115;SDS011;8162;47.104;15.432;2024-03-22T03:51:49;4.90;;;2.90;;
16115;SDS011;8162;47.104;15.432;2024-03-22T03:54:50;3.30;;;2.60;;
16115;SDS011;8162;47.104;15.432;2024-03-22T03:57:51;3.53;;;2.17;;
16115;SDS011;8162;47.104;15.432;2024-03-22T04:00:51;3.40;;;2.70;;
16115;SDS011;8162;47.104;15.432;2024-03-22T04:03:52;2.70;;;2.33;;
16115;SDS011;8162;47.104;15.432;2024-03-22T04:06:52;3.03;;;2.37;;
16115;SDS011;8162;47.104;15.432;2024-03-22T04:09:53;3.07;;;2.37;;
16115;SDS011;8162;47.104;15.432;2024-03-22T04:12:54;2.60;;;2.40;;
16115;SDS011;8162;47.104;15.432;2024-03-22T04:15:58;2.70;;;2.50;;
16115;SDS011;8162;47.104;15.432;2024-03-22T04:18:59;2.60;;;2.40;;
16115;SDS011;8162;47.104;15.432;2024-03-22T04:21:59;3.00;;;2.70;;
16115;SDS011;8162;47.104;15.432;2024-03-22T04:25:00;2.70;;;2.50;;
16115;SDS011;8162;47.104;15.432;2024-03-22T04:28:01;2.50;;;2.30;;
16115;SDS011;8162;47.104;15.432;2024-03-22T04:31:02;2.53;;;2.30;;
16115;SDS011;8162;47.104;15.432;2024-03-22T04:34:04;2.70;;;2.50;;
16115;SDS011;8162;47.104;15.432;2024-03-22T04:37:08;4.73;;;2.53;;
16115;SDS011;8162;47.104;15.432;2024-03-22T04:40:09;4.03;;;2.50;;
16115;SDS011;8162;47.104;15.432;2024-03-22T04:43:10;2.90;;;2.30;;
16115;SDS011;8162;47.104;15.432;2024-03-22T04:46:11;5.20;;;2.43;;
16115;SDS011;8162;47.104;15.432;2024-03-22T04:49:12;2.70;;;2.50;;
16115;SDS011;8162;47.104;15.432;2024-03-22T04:52:13;3.20;;;2.90;;
16115;SDS011;8162;47.104;15.432;2024-03-22T04:55:13;3.23;;;2.93;;
16115;SDS011;8162;47.104;15.432;2024-03-22T04:58:15;2.93;;;2.50;;
16115;SDS011;8162;47.104;15.432;2024-03-22T05:01:19;3.77;;;3.27;;
16115;SDS011;8162;47.104;15.432;2024-03-22T05:04:20;3.87;;;2.97;;
16115;SDS011;8162;47.104;15.432;2024-03-22T05:07:21;3.50;;;3.20;;
16115;SDS011;8162;47.104;15.432;2024-03-22T05:10:21;4.07;;;2.70;;
16115;SDS011;8162;47.104;15.432;2024-03-22T05:13:22;3.83;;;3.00;;
16115;SDS011;8162;47.104;15.432;2024-03-22T05:16:23;3.27;;;2.57;;
16115;SDS011;8162;47.104;15.432;2024-03-22T05:19:23;3.57;;;2.83;;
16115;SDS011;8162;47.104;15.432;2024-03-22T05:22:24;5.60;;;3.00;;
16115;SDS011;8162;47.104;15.432;2024-03-22T05:25:25;2.80;;;2.50;;
16115;SDS011;8162;47.104;15.432;2024-03-22T05:28:25;3.33;;;2.53;;
16115;SDS011;8162;47.104;15.432;2024-03-22T05:31:26;3.47;;;2.73;;
16115;SDS011;8162;47.104;15.432;2024-03-22T05:34:27;3.00;;;2.47;;
16115;SDS011;8162;47.104;15.432;2024-03-22T05:37:28;3.87;;;2.67;;
16115;SDS011;8162;47.104;15.432;2024-03-22T05:40:28;3.50;;;2.90;;
16115;SDS011;8162;47.104;15.432;2024-03-22T05:43:29;2.67;;;2.47;;
16115;SDS011;8162;47.104;15.432;2024-03-22T05:46:30;3.93;;;2.70;;
16115;SDS011;8162;47.104;15.432;2024-03-22T05:49:31;3.10;;;2.83;;
16115;SDS011;8162;47.104;15.432;2024-03-22T05:52:32;5.80;;;2.90;;
16115;SDS011;8162;47.104;15.432;2024-03-22T05:55:33;3.97;;;2.63;;
16115;SDS011;8162;47.104;15.432;2024-03-22T05:58:34;3.13;;;2.83;;
16115;SDS011;8162;47.104;15.432;2024-03-22T06:01:36;3.23;;;2.93;;
16115;SDS011;8162;47.104;15.432;2024-03-22T06:04:38;3.23;;;2.93;;
16115;SDS011;8162;47.104;15.432;2024-03-22T06:07:38;3.50;;;3.20;;
16115;SDS011;8162;47.104;15.432;2024-03-22T06:10:42;5.57;;;3.03;;
16115;SDS011;8162;47.104;15.432;2024-03-22T06:13:42;3.30;;;3.00;;
16115;SDS011;8162;47.104;15.432;2024-03-22T06:16:43;6.37;;;3.07;;
16115;SDS011;8162;47.104;15.432;2024-03-22T06:19:44;5.57;;;3.50;;
16115;SDS011;8162;47.104;15.432;2024-03-22T06:22:44;4.77;;;3.43;;
16115;SDS011;8162;47.104;15.432;2024-03-22T06:25:52;5.80;;;3.20;;
16115;SDS011;8162;47.104;15.432;2024-03-22T06:28:53;3.87;;;3.23;;
16115;SDS011;8162;47.104;15.432;2024-03-22T06:31:53;3.30;;;3.10;;
16115;SDS011;8162;47.104;15.432;2024-03-22T06:34:54;8.00;;;3.67;;
16115;SDS011;8162;47.104;15.432;2024-03-22T06:37:55;4.17;;;2.80;;
16115;SDS011;8162;47.104;15.432;2024-03-22T06:40:55;4.63;;;2.80;;
16115;SDS011;8162;47.104;15.432;2024-03-22T06:43:57;2.67;;;2.47;;
16115;SDS011;8162;47.104;15.432;2024-03-22T06:46:58;3.27;;;2.63;;
16115;SDS011;8162;47.104;15.432;2024-03-22T06:50:02;3.87;;;2.40;;
16115;SDS011;8162;47.104;15.432;2024-03-22T06:53:03;4.77;;;2.53;;
16115;SDS011;8162;47.104;15.432;2024-03-22T06:56:04;4.87;;;3.47;;
16115;SDS011;8162;47.104;15.432;2024-03-22T06:59:05;4.63;;;2.73;;
16115;SDS011;8162;47.104;15.432;2024-03-22T07:02:06;2.57;;;2.37;;
16115;SDS011;8162;47.104;15.432;2024-03-22T07:05:07;5.43;;;3.30;;
16115;SDS011;8162;47.104;15.432;2024-03-22T07:08:08;3.60;;;2.87;;
16115;SDS011;8162;47.104;15.432;2024-03-22T07:11:09;7.50;;;3.73;;
16115;SDS011;8162;47.104;15.432;2024-03-22T07:14:09;5.07;;;3.60;;
16115;SDS011;8162;47.104;15.432;2024-03-22T07:17:10;4.17;;;3.60;;
16115;SDS011;8162;47.104;15.432;2024-03-22T07:20:11;5.83;;;3.83;;
16115;SDS011;8162;47.104;15.432;2024-03-22T07:23:11;3.77;;;3.37;;
16115;SDS011;8162;47.104;15.432;2024-03-22T07:26:12;5.93;;;3.60;;
16115;SDS011;8162;47.104;15.432;2024-03-22T07:29:13;4.67;;;3.40;;
16115;SDS011;8162;47.104;15.432;2024-03-22T07:32:13;9.27;;;3.77;;
16115;SDS011;8162;47.104;15.432;2024-03-22T07:35:14;4.87;;;3.80;;
16115;SDS011;8162;47.104;15.432;2024-03-22T07:38:15;5.47;;;3.70;;
16115;SDS011;8162;47.104;15.432;2024-03-22T07:41:15;6.40;;;3.37;;
16115;SDS011;8162;47.104;15.432;2024-03-22T07:44:16;4.40;;;3.60;;
16115;SDS011;8162;47.104;15.432;2024-03-22T07:47:17;4.77;;;3.67;;
16115;SDS011;8162;47.104;15.432;2024-03-22T07:50:18;11.27;;;4.23;;
16115;SDS011;8162;47.104;15.432;2024-03-22T07:53:18;4.80;;;4.10;;
16115;SDS011;8162;47.104;15.432;2024-03-22T07:56:19;5.97;;;3.53;;
16115;SDS011;8162;47.104;15.432;2024-03-22T07:59:19;4.40;;;3.80;;
16115;SDS011;8162;47.104;15.432;2024-03-22T08:02:20;5.03;;;3.60;;
16115;SDS011;8162;47.104;15.432;2024-03-22T08:05:21;4.97;;;3.90;;
16115;SDS011;8162;47.104;15.432;2024-03-22T08:08:21;4.70;;;3.60;;
16115;SDS011;8162;47.104;15.432;2024-03-22T08:11:22;7.00;;;4.10;;
16115;SDS011;8162;47.104;15.432;2024-03-22T08:14:23;4.53;;;3.80;;
16115;SDS011;8162;47.104;15.432;2024-03-22T08:17:23;5.03;;;3.53;;
16115;SDS011;8162;47.104;15.432;2024-03-22T08:20:24;5.70;;;3.97;;
16115;SDS011;8162;47.104;15.432;2024-03-22T08:23:25;7.10;;;4.20;;
16115;SDS011;8162;47.104;15.432;2024-03-22T08:26:26;4.77;;;3.70;;
16115;SDS011;8162;47.104;15.432;2024-03-22T08:29:27;4.63;;;3.30;;
16115;SDS011;8162;47.104;15.432;2024-03-22T08:32:27;4.73;;;3.30;;
16115;SDS011;8162;47.104;15.432;2024-03-22T08:35:29;6.37;;;3.43;;
16115;SDS011;8162;47.104;15.432;2024-03-22T08:38:30;4.60;;;3.10;;
16115;SDS011;8162;47.104;15.432;2024-03-22T08:41:31;5.50;;;3.73;;
16115;SDS011;8162;47.104;15.432;2024-03-22T08:44:32;4.63;;;3.30;;
16115;SDS011;8162;47.104;15.432;2024-03-22T08:47:32;7.27;;;3.20;;
16115;SDS011;8162;47.104;15.432;2024-03-22T08:50:33;4.23;;;2.97;;
16115;SDS011;8162;47.104;15.432;2024-03-22T08:53:34;3.87;;;2.50;;
16115;SDS011;8162;47.104;15.432;2024-03-22T08:56:35;3.83;;;2.80;;
16115;SDS011;8162;47.104;15.432;2024-03-22T08:59:36;4.33;;;2.93;;
16115;SDS011;8162;47.104;15.432;2024-03-22T09:02:38;3.97;;;2.63;;
16115;SDS011;8162;47.104;15.432;2024-03-22T09:05:38;5.13;;;2.47;;
16115;SDS011;8162;47.104;15.432;2024-03-22T09:08:39;5.77;;;2.53;;
16115;SDS011;8162;47.104;15.432;2024-03-22T09:11:40;3.00;;;2.70;;
16115;SDS011;8162;47.104;15.432;2024-03-22T09:14:40;3.47;;;2.20;;
16115;SDS011;8162;47.104;15.432;2024-03-22T09:17:42;2.80;;;2.47;;
16115;SDS011;8162;47.104;15.432;2024-03-22T09:20:42;4.73;;;2.50;;
16115;SDS011;8162;47.104;15.432;2024-03-22T09:23:43;2.70;;;2.00;;
16115;SDS011;8162;47.104;15.432;2024-03-22T09:26:44;4.50;;;2.27;;
16115;SDS011;8162;47.104;15.432;2024-03-22T09:29:44;4.17;;;2.10;;
16115;SDS011;8162;47.104;15.432;2024-03-22T09:32:45;4.30;;;2.33;;
16115;SDS011;8162;47.104;15.432;2024-03-22T09:35:46;3.87;;;2.40;;
16115;SDS011;8162;47.104;15.432;2024-03-22T09:38:46;3.83;;;2.37;;
16115;SDS011;8162;47.104;15.432;2024-03-22T09:41:47;4.17;;;2.57;;
16115;SDS011;8162;47.104;15.432;2024-03-22T09:44:50;4.43;;;2.40;;
16115;SDS011;8162;47.104;15.432;2024-03-22T09:47:51;2.80;;;2.43;;
16115;SDS011;8162;47.104;15.432;2024-03-22T09:50:55;2.03;;;1.90;;
16115;SDS011;8162;47.104;15.432;2024-03-22T09:53:56;4.33;;;2.20;;
16115;SDS011;8162;47.104;15.432;2024-03-22T09:56:57;3.57;;;2.20;;
16115;SDS011;8162;47.104;15.432;2024-03-22T09:59:59;2.97;;;2.00;;
16115;SDS011;8162;47.104;15.432;2024-03-22T10:02:59;2.93;;;2.07;;
16115;SDS011;8162;47.104;15.432;2024-03-22T10:06:01;2.60;;;1.90;;
16115;SDS011;8162;47.104;15.432;2024-03-22T10:09:02;2.70;;;2.10;;
16115;SDS011;8162;47.104;15.432;2024-03-22T10:12:04;2.73;;;1.90;;
16115;SDS011;8162;47.104;15.432;2024-03-22T10:15:05;1.90;;;1.80;;
16115;SDS011;8162;47.104;15.432;2024-03-22T10:18:09;3.23;;;2.53;;
16115;SDS011;8162;47.104;15.432;2024-03-22T10:21:10;2.73;;;2.17;;
16115;SDS011;8162;47.104;15.432;2024-03-22T10:24:11;2.67;;;1.90;;
16115;SDS011;8162;47.104;15.432;2024-03-22T10:27:12;2.63;;;1.90;;
16115;SDS011;8162;47.104;15.432;2024-03-22T10:30:15;3.77;;;2.00;;
16115;SDS011;8162;47.104;15.432;2024-03-22T10:33:22;3.10;;;2.30;;
16115;SDS011;8162;47.104;15.432;2024-03-22T10:36:23;3.47;;;2.20;;
16115;SDS011;8162;47.104;15.432;2024-03-22T10:39:25;3.27;;;2.33;;
16115;SDS011;8162;47.104;15.432;2024-03-22T10:42:26;4.20;;;2.20;;
16115;SDS011;8162;47.104;15.432;2024-03-22T10:45:27;3.77;;;2.20;;
16115;SDS011;8162;47.104;15.432;2024-03-22T10:48:30;2.93;;;1.60;;
16115;SDS011;8162;47.104;15.432;2024-03-22T10:51:32;3.03;;;1.70;;
16115;SDS011;8162;47.104;15.432;2024-03-22T10:54:35;3.03;;;2.00;;
16115;SDS011;8162;47.104;15.432;2024-03-22T10:57:39;4.33;;;1.87;;
16115;SDS011;8162;47.104;15.432;2024-03-22T11:00:41;2.00;;;1.80;;
16115;SDS011;8162;47.104;15.432;2024-03-22T11:03:45;1.67;;;1.57;;
16115;SDS011;8162;47.104;15.432;2024-03-22T11:06:49;2.27;;;2.07;;
16115;SDS011;8162;47.104;15.432;2024-03-22T11:09:51;2.50;;;1.60;;
16115;SDS011;8162;47.104;15.432;2024-03-22T11:12:53;1.63;;;1.53;;
16115;SDS011;8162;47.104;15.432;2024-03-22T11:15:54;2.27;;;1.70;;
16115;SDS011;8162;47.104;15.432;2024-03-22T11:18:55;2.63;;;1.70;;
16115;SDS011;8162;47.104;15.432;2024-03-22T11:21:56;1.97;;;1.53;;
16115;SDS011;8162;47.104;15.432;2024-03-22T11:24:57;1.60;;;1.50;;
16115;SDS011;8162;47.104;15.432;2024-03-22T11:27:59;1.73;;;1.63;;
16115;SDS011;8162;47.104;15.432;2024-03-22T11:31:03;2.00;;;1.80;;
16115;SDS011;8162;47.104;15.432;2024-03-22T11:34:04;2.63;;;1.77;;
16115;SDS011;8162;47.104;15.432;2024-03-22T11:37:05;1.70;;;1.60;;
16115;SDS011;8162;47.104;15.432;2024-03-22T11:40:10;1.63;;;1.53;;
16115;SDS011;8162;47.104;15.432;2024-03-22T11:43:12;2.07;;;1.43;;
16115;SDS011;8162;47.104;15.432;2024-03-22T11:46:16;2.50;;;1.80;;
16115;SDS011;8162;47.104;15.432;2024-03-22T11:49:18;2.87;;;1.50;;
16115;SDS011;8162;47.104;15.432;2024-03-22T11:52:23;1.70;;;1.60;;
16115;SDS011;8162;47.104;15.432;2024-03-22T11:55:27;2.23;;;1.50;;
16115;SDS011;8162;47.104;15.432;2024-03-22T11:58:28;1.33;;;1.23;;
16115;SDS011;8162;47.104;15.432;2024-03-22T12:01:29;1.47;;;1.33;;
16115;SDS011;8162;47.104;15.432;2024-03-22T12:04:30;2.33;;;1.40;;
16115;SDS011;8162;47.104;15.432;2024-03-22T12:07:30;1.70;;;1.50;;
16115;SDS011;8162;47.104;15.432;2024-03-22T12:10:32;1.73;;;1.63;;
16115;SDS011;8162;47.104;15.432;2024-03-22T12:13:33;2.07;;;1.87;;
16115;SDS011;8162;47.104;15.432;2024-03-22T12:16:34;1.50;;;1.40;;
16115;SDS011;8162;47.104;15.432;2024-03-22T12:19:36;2.60;;;1.60;;
16115;SDS011;8162;47.104;15.432;2024-03-22T12:22:37;1.33;;;1.23;;
16115;SDS011;8162;47.104;15.432;2024-03-22T12:25:38;1.47;;;1.30;;
16115;SDS011;8162;47.104;15.432;2024-03-22T12:28:39;1.80;;;1.63;;
16115;SDS011;8162;47.104;15.432;2024-03-22T12:31:40;1.63;;;1.40;;
16115;SDS011;8162;47.104;15.432;2024-03-22T12:34:41;2.20;;;1.63;;
16115;SDS011;8162;47.104;15.432;2024-03-22T12:37:42;2.37;;;1.50;;
16115;SDS011;8162;47.104;15.432;2024-03-22T12:40:43;4.60;;;1.40;;
16115;SDS011;8162;47.104;15.432;2024-03-22T12:43:44;2.07;;;1.60;;
16115;SDS011;8162;47.104;15.432;2024-03-22T12:46:45;2.30;;;1.60;;
16115;SDS011;8162;47.104;15.432;2024-03-22T12:49:46;1.70;;;1.57;;
16115;SDS011;8162;47.104;15.432;2024-03-22T12:55:51;2.87;;;1.63;;
16115;SDS011;8162;47.104;15.432;2024-03-22T12:58:52;1.90;;;1.60;;
16115;SDS011;8162;47.104;15.432;2024-03-22T13:01:53;2.43;;;1.60;;
16115;SDS011;8162;47.104;15.432;2024-03-22T13:04:54;2.97;;;1.80;;
16115;SDS011;8162;47.104;15.432;2024-03-22T13:07:55;1.93;;;1.40;;
16115;SDS011;8162;47.104;15.432;2024-03-22T13:10:55;1.43;;;1.30;;
16115;SDS011;8162;47.104;15.432;2024-03-22T13:13:56;3.60;;;1.70;;
16115;SDS011;8162;47.104;15.432;2024-03-22T13:16:57;1.60;;;1.50;;
16115;SDS011;8162;47.104;15.432;2024-03-22T13:19:58;1.40;;;1.30;;
16115;SDS011;8162;47.104;15.432;2024-03-22T13:22:59;4.17;;;1.50;;
16115;SDS011;8162;47.104;15.432;2024-03-22T13:26:04;2.13;;;1.60;;
16115;SDS011;8162;47.104;15.432;2024-03-22T13:29:06;3.50;;;1.67;;
16115;SDS011;8162;47.104;15.432;2024-03-22T13:32:07;2.40;;;1.47;;
16115;SDS011;8162;47.104;15.432;2024-03-22T13:35:08;2.90;;;1.40;;
16115;SDS011;8162;47.104;15.432;2024-03-22T13:38:09;1.87;;;1.60;;
16115;SDS011;8162;47.104;15.432;2024-03-22T13:41:13;2.57;;;1.30;;
16115;SDS011;8162;47.104;15.432;2024-03-22T13:44:14;3.10;;;1.70;;
16115;SDS011;8162;47.104;15.432;2024-03-22T13:47:15;2.73;;;1.70;;
16115;SDS011;8162;47.104;15.432;2024-03-22T13:50:17;2.37;;;1.80;;
16115;SDS011;8162;47.104;15.432;2024-03-22T13:53:19;2.17;;;1.43;;
16115;SDS011;8162;47.104;15.432;2024-03-22T13:56:21;2.00;;;1.67;;
16115;SDS011;8162;47.104;15.432;2024-03-22T13:59:22;2.20;;;1.73;;
16115;SDS011;8162;47.104;15.432;2024-03-22T14:02:24;1.60;;;1.50;;
16115;SDS011;8162;47.104;15.432;2024-03-22T14:05:25;2.33;;;1.30;;
16115;SDS011;8162;47.104;15.432;2024-03-22T14:08:26;1.40;;;1.30;;
16115;SDS011;8162;47.104;15.432;2024-03-22T14:11:28;1.43;;;1.33;;
16115;SDS011;8162;47.104;15.432;2024-03-22T14:14:30;1.17;;;1.03;;
16115;SDS011;8162;47.104;15.432;2024-03-22T14:17:31;1.63;;;1.20;;
16115;SDS011;8162;47.104;15.432;2024-03-22T14:20:33;1.88;;;1.30;;
16115;SDS011;8162;47.104;15.432;2024-03-22T14:23:34;2.25;;;1.65;;
16115;SDS011;8162;47.104;15.432;2024-03-22T14:26:35;3.00;;;1.43;;
16115;SDS011;8162;47.104;15.432;2024-03-22T14:29:42;1.70;;;1.40;;
16115;SDS011;8162;47.104;15.432;2024-03-22T14:32:42;1.87;;;1.50;;
16115;SDS011;8162;47.104;15.432;2024-03-22T14:35:44;1.77;;;1.50;;
16115;SDS011;8162;47.104;15.432;2024-03-22T14:38:45;1.60;;;1.40;;
16115;SDS011;8162;47.104;15.432;2024-03-22T14:41:46;1.60;;;1.50;;
16115;SDS011;8162;47.104;15.432;2024-03-22T14:44:47;1.57;;;1.30;;
16115;SDS011;8162;47.104;15.432;2024-03-22T14:47:48;3.03;;;1.60;;
16115;SDS011;8162;47.104;15.432;2024-03-22T14:50:49;3.07;;;1.40;;
16115;SDS011;8162;47.104;15.432;2024-03-22T14:53:53;2.90;;;1.40;;
16115;SDS011;8162;47.104;15.432;2024-03-22T14:56:54;2.73;;;1.80;;
16115;SDS011;8162;47.104;15.432;2024-03-22T14:59:55;3.10;;;1.40;;
16115;SDS011;8162;47.104;15.432;2024-03-22T15:02:56;2.97;;;1.40;;
16115;SDS011;8162;47.104;15.432;2024-03-22T15:05:58;1.50;;;1.40;;
16115;SDS011;8162;47.104;15.432;2024-03-22T15:08:59;2.07;;;1.67;;
16115;SDS011;8162;47.104;15.432;2024-03-22T15:12:05;1.47;;;1.37;;
16115;SDS011;8162;47.104;15.432;2024-03-22T15:15:06;1.90;;;1.70;;
16115;SDS011;8162;47.104;15.432;2024-03-22T15:18:08;2.00;;;1.60;;
16115;SDS011;8162;47.104;15.432;2024-03-22T15:21:12;2.30;;;1.60;;
16115;SDS011;8162;47.104;15.432;2024-03-22T15:24:14;4.73;;;1.50;;
16115;SDS011;8162;47.104;15.432;2024-03-22T15:27:15;1.60;;;1.50;;
16115;SDS011;8162;47.104;15.432;2024-03-22T15:30:16;1.30;;;1.20;;
16115;SDS011;8162;47.104;15.432;2024-03-22T15:33:17;1.97;;;1.40;;
16115;SDS011;8162;47.104;15.432;2024-03-22T15:36:18;1.50;;;1.40;;
16115;SDS011;8162;47.104;15.432;2024-03-22T15:39:19;1.80;;;1.60;;
16115;SDS011;8162;47.104;15.432;2024-03-22T15:42:21;3.83;;;1.40;;
16115;SDS011;8162;47.104;15.432;2024-03-22T15:45:21;2.43;;;1.60;;
16115;SDS011;8162;47.104;15.432;2024-03-22T15:48:22;2.47;;;1.70;;
16115;SDS011;8162;47.104;15.432;2024-03-22T15:51:24;6.00;;;1.73;;
16115;SDS011;8162;47.104;15.432;2024-03-22T15:54:25;3.43;;;1.50;;
16115;SDS011;8162;47.104;15.432;2024-03-22T15:57:27;1.43;;;1.30;;
16115;SDS011;8162;47.104;15.432;2024-03-22T16:00:28;1.70;;;1.60;;
16115;SDS011;8162;47.104;15.432;2024-03-22T16:03:29;3.67;;;1.97;;
16115;SDS011;8162;47.104;15.432;2024-03-22T16:06:29;1.33;;;1.23;;
16115;SDS011;8162;47.104;15.432;2024-03-22T16:09:30;2.47;;;1.47;;
16115;SDS011;8162;47.104;15.432;2024-03-22T16:12:31;1.60;;;1.40;;
16115;SDS011;8162;47.104;15.432;2024-03-22T16:15:32;1.40;;;1.30;;
16115;SDS011;8162;47.104;15.432;2024-03-22T16:18:32;2.43;;;1.43;;
16115;SDS011;8162;47.104;15.432;2024-03-22T16:21:34;3.23;;;1.40;;
16115;SDS011;8162;47.104;15.432;2024-03-22T16:24:34;2.47;;;1.77;;
16115;SDS011;8162;47.104;15.432;2024-03-22T16:27:35;7.87;;;1.70;;
16115;SDS011;8162;47.104;15.432;2024-03-22T16:30:36;3.17;;;1.50;;
16115;SDS011;8162;47.104;15.432;2024-03-22T16:33:36;3.43;;;1.20;;
16115;SDS011;8162;47.104;15.432;2024-03-22T16:36:37;2.07;;;1.57;;
16115;SDS011;8162;47.104;15.432;2024-03-22T16:39:38;2.47;;;1.60;;
16115;SDS011;8162;47.104;15.432;2024-03-22T16:42:45;1.40;;;1.30;;
16115;SDS011;8162;47.104;15.432;2024-03-22T16:45:49;2.93;;;1.70;;
16115;SDS011;8162;47.104;15.432;2024-03-22T16:48:49;4.13;;;1.73;;
16115;SDS011;8162;47.104;15.432;2024-03-22T16:51:50;2.63;;;1.80;;
16115;SDS011;8162;47.104;15.432;2024-03-22T16:54:51;2.57;;;1.50;;
16115;SDS011;8162;47.104;15.432;2024-03-22T16:57:52;1.83;;;1.30;;
16115;SDS011;8162;47.104;15.432;2024-03-22T17:00:53;1.73;;;1.40;;
16115;SDS011;8162;47.104;15.432;2024-03-22T17:03:54;2.27;;;1.73;;
16115;SDS011;8162;47.104;15.432;2024-03-22T17:06:55;3.67;;;1.87;;
16115;SDS011;8162;47.104;15.432;2024-03-22T17:09:56;4.63;;;1.87;;
16115;SDS011;8162;47.104;15.432;2024-03-22T17:12:56;3.70;;;2.00;;
16115;SDS011;8162;47.104;15.432;2024-03-22T17:15:57;3.77;;;1.90;;
16115;SDS011;8162;47.104;15.432;2024-03-22T17:18:59;2.50;;;2.07;;
16115;SDS011;8162;47.104;15.432;2024-03-22T17:21:59;3.47;;;1.80;;
16115;SDS011;8162;47.104;15.432;2024-03-22T17:25:01;3.97;;;1.67;;
16115;SDS011;8162;47.104;15.432;2024-03-22T17:28:01;1.87;;;1.70;;
16115;SDS011;8162;47.104;15.432;2024-03-22T17:31:02;3.33;;;1.90;;
16115;SDS011;8162;47.104;15.432;2024-03-22T17:34:03;6.03;;;1.90;;
16115;SDS011;8162;47.104;15.432;2024-03-22T17:37:05;2.33;;;2.10;;
16115;SDS011;8162;47.104;15.432;2024-03-22T17:40:06;3.60;;;1.83;;
16115;SDS011;8162;47.104;15.432;2024-03-22T17:43:07;2.17;;;1.90;;
16115;SDS011;8162;47.104;15.432;2024-03-22T17:46:08;2.30;;;1.87;;
16115;SDS011;8162;47.104;15.432;2024-03-22T17:49:09;2.40;;;1.83;;
16115;SDS011;8162;47.104;15.432;2024-03-22T17:52:10;1.93;;;1.80;;
16115;SDS011;8162;47.104;15.432;2024-03-22T17:55:10;2.40;;;2.20;;
16115;SDS011;8162;47.104;15.432;2024-03-22T17:58:11;3.27;;;2.03;;
16115;SDS011;8162;47.104;15.432;2024-03-22T18:01:12;3.67;;;2.07;;
16115;SDS011;8162;47.104;15.432;2024-03-22T18:04:14;2.97;;;2.10;;
16115;SDS011;8162;47.104;15.432;2024-03-22T18:07:15;4.17;;;1.87;;
16115;SDS011;8162;47.104;15.432;2024-03-22T18:10:15;2.30;;;2.10;;
16115;SDS011;8162;47.104;15.432;2024-03-22T18:13:16;3.53;;;2.00;;
16115;SDS011;8162;47.104;15.432;2024-03-22T18:16:17;3.90;;;1.97;;
16115;SDS011;8162;47.104;15.432;2024-03-22T18:19:18;2.47;;;2.00;;
16115;SDS011;8162;47.104;15.432;2024-03-22T18:22:18;4.13;;;2.60;;